createdAt,value
2018-08-28T00:00:50.866Z,66.40
2018-08-28T00:03:19.299Z,66.20
2018-08-28T00:05:47.741Z,67.30
2018-08-28T00:08:16.205Z,67.90
2018-08-28T00:10:44.644Z,68.50
2018-08-28T00:13:13.102Z,69.20
2018-08-28T00:15:41.586Z,68.50
2018-08-28T00:18:09.999Z,68.90
2018-08-28T00:20:38.427Z,68.80
2018-08-28T00:23:06.843Z,69.90
2018-08-28T00:25:35.301Z,71.40
2018-08-28T00:28:03.739Z,72.00
2018-08-28T00:30:32.194Z,72.40
2018-08-28T00:33:00.649Z,73.90
2018-08-28T00:35:29.116Z,74.10
2018-08-28T00:37:57.573Z,75.10
2018-08-28T00:40:26.090Z,75.60
2018-08-28T00:42:54.532Z,75.90
2018-08-28T00:45:22.995Z,75.40
2018-08-28T00:47:51.436Z,75.80
2018-08-28T00:50:20.468Z,76.30
2018-08-28T00:52:48.885Z,77.00
2018-08-28T00:55:17.297Z,76.30
2018-08-28T00:57:45.770Z,75.90
2018-08-28T01:00:14.214Z,77.00
2018-08-28T01:02:42.652Z,77.10
2018-08-28T01:05:11.104Z,77.40
2018-08-28T01:07:39.546Z,76.70
2018-08-28T01:10:08.241Z,77.80
2018-08-28T01:12:36.713Z,77.70
2018-08-28T01:15:05.858Z,78.10
2018-08-28T01:17:34.320Z,78.10
2018-08-28T01:20:02.841Z,77.80
2018-08-28T01:22:31.292Z,78.50
2018-08-28T01:24:59.706Z,78.80
2018-08-28T01:27:28.157Z,78.60
2018-08-28T01:29:56.569Z,78.30
2018-08-28T01:32:25.072Z,79.20
2018-08-28T01:34:53.494Z,79.40
2018-08-28T01:37:21.940Z,79.80
2018-08-28T01:39:50.353Z,79.70
2018-08-28T01:42:21.928Z,79.40
2018-08-28T01:44:50.533Z,80.10
2018-08-28T01:47:19.470Z,80.20
2018-08-28T01:49:48.129Z,81.00
2018-08-28T01:52:16.581Z,80.80
2018-08-28T01:54:45.055Z,81.20
2018-08-28T01:57:13.535Z,81.10
2018-08-28T01:59:41.977Z,81.70
2018-08-28T02:02:10.428Z,82.00
2018-08-28T02:04:38.857Z,82.50
2018-08-28T02:07:07.287Z,83.40
2018-08-28T02:09:35.764Z,83.40
2018-08-28T02:12:04.176Z,83.80
2018-08-28T02:14:32.638Z,83.80
2018-08-28T02:17:01.086Z,84.50
2018-08-28T02:19:29.516Z,85.30
2018-08-28T02:21:57.973Z,84.60
2018-08-28T02:24:26.417Z,84.70
2018-08-28T02:26:54.879Z,84.40
2018-08-28T02:29:23.314Z,84.80
2018-08-28T02:31:51.767Z,85.50
2018-08-28T02:34:20.289Z,85.60
2018-08-28T02:36:48.861Z,85.00
2018-08-28T02:39:17.288Z,85.30
2018-08-28T02:41:45.742Z,86.30
2018-08-28T02:44:14.174Z,86.30
2018-08-28T02:46:42.628Z,85.80
2018-08-28T02:49:11.124Z,85.80
2018-08-28T02:51:39.569Z,86.20
2018-08-28T02:54:08.020Z,87.10
2018-08-28T02:56:36.480Z,86.20
2018-08-28T02:59:05.149Z,86.20
2018-08-28T03:01:33.561Z,86.20
2018-08-28T03:04:01.993Z,86.20
2018-08-28T03:06:30.473Z,87.10
2018-08-28T03:08:58.929Z,86.90
2018-08-28T03:11:27.420Z,86.70
2018-08-28T03:13:55.829Z,86.50
2018-08-28T03:16:24.341Z,86.70
2018-08-28T03:18:52.777Z,87.20
2018-08-28T03:21:21.229Z,87.10
2018-08-28T03:23:49.689Z,87.40
2018-08-28T03:26:18.131Z,87.60
2018-08-28T03:28:46.532Z,87.90
2018-08-28T03:31:14.993Z,88.00
2018-08-28T03:33:43.429Z,88.50
2018-08-28T03:36:11.877Z,88.60
2018-08-28T03:38:40.343Z,88.60
2018-08-28T03:41:08.777Z,89.70
2018-08-28T03:43:37.253Z,89.20
2018-08-28T03:46:05.762Z,88.70
2018-08-28T03:48:34.213Z,88.70
2018-08-28T03:51:02.620Z,88.70
2018-08-28T03:53:31.041Z,88.10
2018-08-28T03:55:59.470Z,88.80
2018-08-28T03:58:27.876Z,88.60
2018-08-28T04:00:56.325Z,88.40
2018-08-28T04:03:24.820Z,89.30
2018-08-28T04:05:53.248Z,89.10
2018-08-28T04:08:21.682Z,88.90
2018-08-28T04:10:50.100Z,89.70
2018-08-28T04:13:18.542Z,88.90
2018-08-28T04:15:46.980Z,88.20
2018-08-28T04:18:15.422Z,88.90
2018-08-28T04:20:43.873Z,87.70
2018-08-28T04:23:12.335Z,88.10
2018-08-28T04:25:40.940Z,88.20
2018-08-28T04:28:09.383Z,89.20
2018-08-28T04:30:37.872Z,89.00
2018-08-28T04:33:06.377Z,89.20
2018-08-28T04:35:34.854Z,89.10
2018-08-28T04:38:03.301Z,89.00
2018-08-28T04:40:31.714Z,89.00
2018-08-28T04:43:00.154Z,89.70
2018-08-28T04:45:28.588Z,89.90
2018-08-28T04:47:57.041Z,90.20
2018-08-28T04:50:25.488Z,90.20
2018-08-28T04:52:53.928Z,90.20
2018-08-28T04:55:22.385Z,90.30
2018-08-28T04:57:50.784Z,90.40
2018-08-28T05:00:19.217Z,90.40
2018-08-28T05:02:47.638Z,90.30
2018-08-28T05:05:16.068Z,90.90
2018-08-28T05:07:44.485Z,90.60
2018-08-28T05:10:13.082Z,90.90
2018-08-28T05:12:41.664Z,91.30
2018-08-28T05:15:10.177Z,91.50
2018-08-28T05:17:38.645Z,91.00
2018-08-28T05:20:07.577Z,91.20
2018-08-28T05:22:36.017Z,91.30
2018-08-28T05:25:04.480Z,91.50
2018-08-28T05:27:32.931Z,91.40
2018-08-28T05:30:01.347Z,91.40
2018-08-28T05:32:29.764Z,91.30
2018-08-28T05:34:58.247Z,91.50
2018-08-28T05:37:26.669Z,91.30
2018-08-28T05:39:55.082Z,91.30
2018-08-28T05:42:23.505Z,91.80
2018-08-28T05:44:51.965Z,92.00
2018-08-28T05:47:20.399Z,91.80
2018-08-28T05:49:48.836Z,91.80
2018-08-28T05:52:17.293Z,91.80
2018-08-28T05:54:45.732Z,91.10
2018-08-28T05:57:19.748Z,91.40
2018-08-28T05:59:48.201Z,91.10
2018-08-28T06:02:16.630Z,91.00
2018-08-28T06:04:45.074Z,91.20
2018-08-28T06:07:13.532Z,90.70
2018-08-28T06:09:41.954Z,90.50
2018-08-28T06:12:10.417Z,90.30
2018-08-28T06:14:38.923Z,90.20
2018-08-28T06:17:07.340Z,90.00
2018-08-28T06:19:35.803Z,89.70
2018-08-28T06:22:04.238Z,89.60
2018-08-28T06:24:32.667Z,89.40
2018-08-28T06:27:01.118Z,89.00
2018-08-28T06:29:29.594Z,89.00
2018-08-28T06:31:58.002Z,88.70
2018-08-28T06:34:26.439Z,87.80
2018-08-28T06:36:55.096Z,87.30
2018-08-28T06:39:23.644Z,86.70
2018-08-28T06:41:52.116Z,87.20
2018-08-28T06:44:20.624Z,86.80
2018-08-28T06:46:49.083Z,86.10
2018-08-28T06:49:17.648Z,85.90
2018-08-28T06:51:46.249Z,84.40
2018-08-28T06:54:15.045Z,84.40
2018-08-28T06:56:43.708Z,83.10
2018-08-28T06:59:12.143Z,84.10
2018-08-28T07:01:40.650Z,84.10
2018-08-28T07:04:09.073Z,84.60
2018-08-28T07:06:37.507Z,83.70
2018-08-28T07:09:07.265Z,83.30
2018-08-28T07:11:35.989Z,83.40
2018-08-28T07:14:04.727Z,81.20
2018-08-28T07:16:33.186Z,77.60
2018-08-28T07:19:02.347Z,78.70
2018-08-28T07:21:30.835Z,77.00
2018-08-28T07:23:59.540Z,77.30
2018-08-28T07:26:28.013Z,76.50
2018-08-28T07:28:56.602Z,76.40
2018-08-28T07:31:25.080Z,76.00
2018-08-28T07:33:53.504Z,76.50
2018-08-28T07:36:21.935Z,76.20
2018-08-28T07:38:51.237Z,75.40
2018-08-28T07:41:19.697Z,74.00
2018-08-28T07:43:48.181Z,70.90
2018-08-28T07:46:16.604Z,68.90
2018-08-28T07:48:45.038Z,69.90
2018-08-28T07:51:13.590Z,66.10
2018-08-28T07:53:42.153Z,61.00
2018-08-28T07:56:10.733Z,58.60
2018-08-28T07:58:39.173Z,57.80
2018-08-28T08:01:07.629Z,55.90
2018-08-28T08:03:36.088Z,54.70
2018-08-28T08:06:04.517Z,52.80
2018-08-28T08:08:32.951Z,51.90
2018-08-28T08:11:01.400Z,50.60
2018-08-28T08:13:29.885Z,48.90
2018-08-28T08:15:59.337Z,45.90
2018-08-28T08:18:27.749Z,46.30
2018-08-28T08:20:56.198Z,46.10
2018-08-28T08:23:25.578Z,45.40
2018-08-28T08:25:54.045Z,44.90
2018-08-28T08:28:22.590Z,43.20
2018-08-28T08:30:50.964Z,42.20
2018-08-28T08:33:19.401Z,39.30
2018-08-28T08:35:47.828Z,41.80
2018-08-28T08:38:16.294Z,40.50
2018-08-28T08:40:44.869Z,40.10
2018-08-28T08:43:13.305Z,40.50
2018-08-28T08:45:41.756Z,37.00
2018-08-28T08:48:10.321Z,38.10
2018-08-28T08:50:38.838Z,38.60
2018-08-28T08:53:07.343Z,38.90
2018-08-28T08:55:36.690Z,39.40
2018-08-28T08:58:05.382Z,38.70
2018-08-28T09:00:33.927Z,38.60
2018-08-28T09:03:02.356Z,38.50
2018-08-28T09:05:30.884Z,38.60
2018-08-28T09:07:59.328Z,36.40
2018-08-28T09:10:27.757Z,37.40
2018-08-28T09:12:56.288Z,37.50
2018-08-28T09:15:24.848Z,36.00
2018-08-28T09:17:53.287Z,36.40
2018-08-28T09:20:21.768Z,36.40
2018-08-28T09:22:50.260Z,36.80
2018-08-28T09:25:18.725Z,38.10
2018-08-28T09:27:47.166Z,35.70
2018-08-28T09:30:15.656Z,36.20
2018-08-28T09:32:44.155Z,37.00
2018-08-28T09:35:12.612Z,36.70
2018-08-28T09:37:41.040Z,35.90
2018-08-28T09:40:09.508Z,37.90
2018-08-28T09:42:37.925Z,37.50
2018-08-28T09:45:06.429Z,39.30
2018-08-28T09:47:34.846Z,37.80
2018-08-28T09:50:03.285Z,38.90
2018-08-28T09:52:31.732Z,38.30
2018-08-28T09:55:00.182Z,38.10
2018-08-28T09:57:28.756Z,38.60
2018-08-28T09:59:57.188Z,38.70
2018-08-28T10:02:25.727Z,36.90
2018-08-28T10:04:54.234Z,37.80
2018-08-28T10:07:22.669Z,38.60
2018-08-28T10:09:51.175Z,39.10
2018-08-28T10:12:19.601Z,38.60
2018-08-28T10:14:48.016Z,38.90
2018-08-28T10:17:16.459Z,38.60
2018-08-28T10:19:44.906Z,39.50
2018-08-28T10:22:13.309Z,39.20
2018-08-28T10:24:41.765Z,39.90
2018-08-28T10:27:10.180Z,40.10
2018-08-28T10:29:38.630Z,38.90
2018-08-28T10:32:07.054Z,38.70
2018-08-28T10:34:36.013Z,38.70
2018-08-28T10:37:04.556Z,37.60
2018-08-28T10:39:33.039Z,37.40
2018-08-28T10:42:01.461Z,38.80
2018-08-28T10:44:29.908Z,39.10
2018-08-28T10:46:58.412Z,40.20
2018-08-28T10:49:26.788Z,38.30
2018-08-28T10:51:55.289Z,39.70
2018-08-28T10:54:23.689Z,38.90
2018-08-28T10:56:52.136Z,38.90
2018-08-28T10:59:20.565Z,37.30
2018-08-28T11:01:48.988Z,38.10
2018-08-28T11:04:17.465Z,38.70
2018-08-28T11:06:45.905Z,37.60
2018-08-28T11:09:14.342Z,38.20
2018-08-28T11:11:42.955Z,38.10
2018-08-28T11:14:11.432Z,38.30
2018-08-28T11:16:39.906Z,36.70
2018-08-28T11:19:08.577Z,33.90
2018-08-28T11:21:37.029Z,37.20
2018-08-28T11:24:05.469Z,36.50
2018-08-28T11:26:33.914Z,35.80
2018-08-28T11:29:02.389Z,36.00
2018-08-28T11:31:30.830Z,35.90
2018-08-28T11:33:59.271Z,37.30
2018-08-28T11:36:27.728Z,37.70
2018-08-28T11:38:56.160Z,38.20
2018-08-28T11:41:24.636Z,36.20
2018-08-28T11:43:53.216Z,36.50
2018-08-28T11:46:21.644Z,35.60
2018-08-28T11:48:50.064Z,34.20
2018-08-28T11:51:18.517Z,34.60
2018-08-28T11:53:48.028Z,34.90
2018-08-28T11:56:16.652Z,34.20
2018-08-28T11:58:45.362Z,34.60
2018-08-28T12:01:13.785Z,34.40
2018-08-28T12:03:43.141Z,34.90
2018-08-28T12:06:11.607Z,34.70
2018-08-28T12:08:41.185Z,35.10
2018-08-28T12:11:09.774Z,35.60
2018-08-28T12:13:38.316Z,33.80
2018-08-28T12:16:07.008Z,33.60
2018-08-28T12:18:35.482Z,34.40
2018-08-28T12:21:04.144Z,35.40
2018-08-28T12:23:32.586Z,35.60
2018-08-28T12:26:01.006Z,34.00
2018-08-28T12:28:29.449Z,36.10
2018-08-28T12:30:57.884Z,34.50
2018-08-28T12:33:26.326Z,35.50
2018-08-28T12:35:54.797Z,36.00
2018-08-28T12:38:23.270Z,35.90
2018-08-28T12:40:51.751Z,33.70
2018-08-28T12:43:20.200Z,34.90
2018-08-28T12:45:48.631Z,34.30
2018-08-28T12:48:17.157Z,35.00
2018-08-28T12:50:45.592Z,33.90
2018-08-28T12:53:14.105Z,35.30
2018-08-28T12:55:42.557Z,32.80
2018-08-28T12:58:10.972Z,31.90
2018-08-28T13:00:39.482Z,35.50
2018-08-28T13:03:09.140Z,35.00
2018-08-28T13:05:37.552Z,34.90
2018-08-28T13:08:06.023Z,34.60
2018-08-28T13:10:34.489Z,35.70
2018-08-28T13:13:02.906Z,34.90
2018-08-28T13:15:31.361Z,36.40
2018-08-28T13:17:59.822Z,34.70
2018-08-28T13:20:28.272Z,35.00
2018-08-28T13:22:56.706Z,35.10
2018-08-28T13:25:25.291Z,34.90
2018-08-28T13:27:53.773Z,33.90
2018-08-28T13:30:22.305Z,36.10
2018-08-28T13:32:50.782Z,34.80
2018-08-28T13:35:19.467Z,35.90
2018-08-28T13:37:47.921Z,36.10
2018-08-28T13:40:16.440Z,36.80
2018-08-28T13:42:45.167Z,35.40
2018-08-28T13:45:13.623Z,35.80
2018-08-28T13:47:42.113Z,35.70
2018-08-28T13:50:10.573Z,35.20
2018-08-28T13:52:39.045Z,35.30
2018-08-28T13:55:07.498Z,36.80
2018-08-28T13:57:35.943Z,36.80
2018-08-28T14:00:04.487Z,36.50
2018-08-28T14:02:32.892Z,36.00
2018-08-28T14:05:01.370Z,36.20
2018-08-28T14:07:29.816Z,35.50
2018-08-28T14:09:58.356Z,35.80
2018-08-28T14:12:26.796Z,36.10
2018-08-28T14:14:55.403Z,36.90
2018-08-28T14:17:23.792Z,36.50
2018-08-28T14:19:52.725Z,35.60
2018-08-28T14:22:21.219Z,35.10
2018-08-28T14:24:49.673Z,35.70
2018-08-28T14:27:18.158Z,36.30
2018-08-28T14:29:46.652Z,36.70
2018-08-28T14:32:15.795Z,37.80
2018-08-28T14:34:44.777Z,37.30
2018-08-28T14:37:13.288Z,36.60
2018-08-28T14:39:41.721Z,35.80
2018-08-28T14:42:10.159Z,36.00
2018-08-28T14:44:38.613Z,36.30
2018-08-28T14:47:07.345Z,35.70
2018-08-28T14:49:35.794Z,35.50
2018-08-28T14:52:04.245Z,35.70
2018-08-28T14:54:32.686Z,35.20
2018-08-28T14:57:01.165Z,36.10
2018-08-28T14:59:29.665Z,36.70
2018-08-28T15:01:58.106Z,37.40
2018-08-28T15:04:26.552Z,37.50
2018-08-28T15:06:55.009Z,36.40
2018-08-28T15:09:23.470Z,37.80
2018-08-28T15:11:51.921Z,36.50
2018-08-28T15:14:20.429Z,36.80
2018-08-28T15:16:48.992Z,36.50
2018-08-28T15:19:17.420Z,35.90
2018-08-28T15:21:45.865Z,36.30
2018-08-28T15:24:14.324Z,36.30
2018-08-28T15:26:42.759Z,38.00
2018-08-28T15:29:11.225Z,37.90
2018-08-28T15:31:39.662Z,38.40
2018-08-28T15:34:08.085Z,38.40
2018-08-28T15:36:36.501Z,38.90
2018-08-28T15:39:06.227Z,39.40
2018-08-28T15:41:34.645Z,38.80
2018-08-28T15:44:03.107Z,38.60
2018-08-28T15:46:31.518Z,37.70
2018-08-28T15:49:00.069Z,39.40
2018-08-28T15:51:28.634Z,39.80
2018-08-28T15:53:56.997Z,40.50
2018-08-28T15:56:25.451Z,41.40
2018-08-28T15:58:53.958Z,42.00
2018-08-28T16:01:22.593Z,42.20
2018-08-28T16:03:51.029Z,41.40
2018-08-28T16:06:19.512Z,41.60
2018-08-28T16:08:48.149Z,41.20
2018-08-28T16:11:16.593Z,41.80
2018-08-28T16:13:45.026Z,41.90
2018-08-28T16:16:13.450Z,41.30
2018-08-28T16:18:41.862Z,42.20
2018-08-28T16:21:10.299Z,42.20
2018-08-28T16:23:41.171Z,43.10
2018-08-28T16:26:09.597Z,43.60
2018-08-28T16:28:38.133Z,44.30
2018-08-28T16:31:06.729Z,45.30
2018-08-28T16:33:35.165Z,47.80
2018-08-28T16:36:03.605Z,49.00
2018-08-28T16:38:32.044Z,49.50
2018-08-28T16:41:00.532Z,50.10
2018-08-28T16:43:28.928Z,50.70
2018-08-28T16:45:57.357Z,50.80
2018-08-28T16:48:25.895Z,51.40
2018-08-28T16:50:54.356Z,50.80
2018-08-28T16:53:22.789Z,50.30
2018-08-28T16:55:51.350Z,51.00
2018-08-28T16:58:19.704Z,52.30
2018-08-28T17:00:48.191Z,52.40
2018-08-28T17:03:16.637Z,52.40
2018-08-28T17:05:45.091Z,52.60
2018-08-28T17:08:13.527Z,52.90
2018-08-28T17:10:41.977Z,53.40
2018-08-28T17:13:10.409Z,54.20
2018-08-28T17:15:38.841Z,53.80
2018-08-28T17:18:07.254Z,53.90
2018-08-28T17:20:35.729Z,54.70
2018-08-28T17:23:04.190Z,54.80
2018-08-28T17:25:32.614Z,55.20
2018-08-28T17:28:01.072Z,55.10
2018-08-28T17:30:29.550Z,55.30
2018-08-28T17:32:58.116Z,56.10
2018-08-28T17:35:26.650Z,56.30
2018-08-28T17:37:55.096Z,57.20
2018-08-28T17:40:23.549Z,56.90
2018-08-28T17:42:52.026Z,57.50
2018-08-28T17:45:20.973Z,57.60
2018-08-28T17:47:49.428Z,57.80
2018-08-28T17:50:17.922Z,58.00
2018-08-28T17:52:46.391Z,59.70
2018-08-28T17:55:14.826Z,59.20
2018-08-28T17:57:43.349Z,59.50
2018-08-28T18:00:11.912Z,59.80
2018-08-28T18:02:40.606Z,60.00
2018-08-28T18:05:09.089Z,60.00
2018-08-28T18:07:37.962Z,60.90
2018-08-28T18:10:06.617Z,61.80
2018-08-28T18:12:35.053Z,61.10
2018-08-28T18:15:03.533Z,61.20
2018-08-28T18:17:32.056Z,61.40
2018-08-28T18:20:00.515Z,62.40
2018-08-28T18:22:29.036Z,62.50
2018-08-28T18:24:57.471Z,63.00
2018-08-28T18:27:25.924Z,64.10
2018-08-28T18:29:54.373Z,63.90
2018-08-28T18:32:22.816Z,64.30
2018-08-28T18:34:51.218Z,64.20
2018-08-28T18:37:19.773Z,65.20
2018-08-28T18:39:48.795Z,65.40
2018-08-28T18:42:17.245Z,66.00
2018-08-28T18:44:45.773Z,66.80
2018-08-28T18:47:14.202Z,67.10
2018-08-28T18:49:42.665Z,67.10
2018-08-28T18:52:11.084Z,68.60
2018-08-28T18:54:39.540Z,67.80
2018-08-28T18:57:07.979Z,68.20
2018-08-28T18:59:36.445Z,68.40
2018-08-28T19:02:04.965Z,68.30
2018-08-28T19:04:33.452Z,69.60
2018-08-28T19:07:01.920Z,69.60
2018-08-28T19:09:30.411Z,70.20
2018-08-28T19:11:58.850Z,70.00
2018-08-28T19:14:27.295Z,70.10
2018-08-28T19:16:55.834Z,70.30
2018-08-28T19:19:24.300Z,70.60
2018-08-28T19:21:52.782Z,71.00
2018-08-28T19:24:21.233Z,71.10
2018-08-28T19:26:49.752Z,71.10
2018-08-28T19:29:18.273Z,71.90
2018-08-28T19:31:46.800Z,72.10
2018-08-28T19:34:15.158Z,72.70
2018-08-28T19:36:43.577Z,73.00
2018-08-28T19:39:12.005Z,73.10
2018-08-28T19:41:40.454Z,73.10
2018-08-28T19:44:08.969Z,73.40
2018-08-28T19:46:37.468Z,73.90
2018-08-28T19:49:06.021Z,73.80
2018-08-28T19:51:34.444Z,74.70
2018-08-28T19:54:02.986Z,76.10
2018-08-28T19:56:31.421Z,75.10
2018-08-28T19:58:59.849Z,75.20
2018-08-28T20:01:28.284Z,75.50
2018-08-28T20:03:56.763Z,76.00
2018-08-28T20:06:25.185Z,76.40
2018-08-28T20:08:53.642Z,76.30
2018-08-28T20:11:22.082Z,76.70
2018-08-28T20:13:50.762Z,77.10
2018-08-28T20:16:19.414Z,76.90
2018-08-28T20:18:47.964Z,77.40
2018-08-28T20:21:16.396Z,77.90
2018-08-28T20:23:44.920Z,78.20
2018-08-28T20:26:13.341Z,78.50
2018-08-28T20:28:41.768Z,78.80
2018-08-28T20:31:10.233Z,78.90
2018-08-28T20:33:38.707Z,78.80
2018-08-28T20:36:07.125Z,79.00
2018-08-28T20:38:35.596Z,80.00
2018-08-28T20:41:04.021Z,80.00
2018-08-28T20:43:32.574Z,80.20
2018-08-28T20:46:00.976Z,81.00
2018-08-28T20:48:29.428Z,82.10
2018-08-28T20:50:57.913Z,81.00
2018-08-28T20:53:26.342Z,81.60
2018-08-28T20:55:55.017Z,82.10
2018-08-28T20:58:23.480Z,81.00
2018-08-28T21:00:52.243Z,81.60
2018-08-28T21:03:20.853Z,81.80
2018-08-28T21:05:49.277Z,82.30
2018-08-28T21:08:17.854Z,82.50
2018-08-28T21:10:46.280Z,84.30
2018-08-28T21:13:14.761Z,83.10
2018-08-28T21:15:43.261Z,83.30
2018-08-28T21:18:11.773Z,83.60
2018-08-28T21:20:40.217Z,84.70
2018-08-28T21:23:08.669Z,84.40
2018-08-28T21:25:37.079Z,84.40
2018-08-28T21:28:05.990Z,85.30
2018-08-28T21:30:34.506Z,85.20
2018-08-28T21:33:02.958Z,85.20
2018-08-28T21:35:31.440Z,85.80
2018-08-28T21:37:59.921Z,86.10
2018-08-28T21:40:28.450Z,86.40
2018-08-28T21:42:56.970Z,87.00
2018-08-28T21:45:25.438Z,87.30
2018-08-28T21:47:53.865Z,87.30
2018-08-28T21:50:22.325Z,88.20
2018-08-28T21:52:50.744Z,88.40
2018-08-28T21:55:19.184Z,88.40
2018-08-28T21:57:47.797Z,88.90
2018-08-28T22:00:16.337Z,88.60
2018-08-28T22:02:45.732Z,89.00
2018-08-28T22:05:14.224Z,89.30
2018-08-28T22:07:43.217Z,89.80
2018-08-28T22:10:12.162Z,89.90
2018-08-28T22:12:40.627Z,90.00
2018-08-28T22:15:13.690Z,90.20
2018-08-28T22:17:42.672Z,90.30
2018-08-28T22:20:11.123Z,90.30
2018-08-28T22:22:39.593Z,90.60
2018-08-28T22:25:08.045Z,90.60
2018-08-28T22:27:36.633Z,90.60
2018-08-28T22:30:06.312Z,90.90
2018-08-28T22:32:34.730Z,91.20
2018-08-28T22:35:03.326Z,90.80
2018-08-28T22:37:32.334Z,90.90
2018-08-28T22:40:00.762Z,90.90
2018-08-28T22:42:29.165Z,91.00
2018-08-28T22:44:57.641Z,91.10
2018-08-28T22:47:26.282Z,91.30
2018-08-28T22:49:55.332Z,91.40
2018-08-28T22:52:23.785Z,91.60
2018-08-28T22:54:52.900Z,91.60
2018-08-28T22:57:22.209Z,91.60
2018-08-28T22:59:50.624Z,91.70
2018-08-28T23:02:19.039Z,91.70
2018-08-28T23:04:47.506Z,92.10
2018-08-28T23:07:15.932Z,92.00
2018-08-28T23:09:44.445Z,92.10
2018-08-28T23:12:13.018Z,92.10
2018-08-28T23:14:41.393Z,92.20
2018-08-28T23:17:09.802Z,92.50
2018-08-28T23:19:38.287Z,92.40
2018-08-28T23:22:06.726Z,92.40
2018-08-28T23:24:35.156Z,92.40
2018-08-28T23:27:03.633Z,92.70
2018-08-28T23:29:32.604Z,92.70
2018-08-28T23:32:01.425Z,92.70
2018-08-28T23:34:29.867Z,92.80
2018-08-28T23:36:58.280Z,92.80
2018-08-28T23:39:26.685Z,92.70
2018-08-28T23:41:55.100Z,93.30
2018-08-28T23:44:23.632Z,93.30
2018-08-28T23:46:52.086Z,93.70
2018-08-28T23:49:20.550Z,93.60
2018-08-28T23:51:48.980Z,93.60
2018-08-28T23:54:17.417Z,93.60
2018-08-28T23:56:45.921Z,93.70
2018-08-28T23:59:14.361Z,93.80
